DW6885 Weather Reports


Display with metric or nautical units.
time (UTC)temp
F
wind
direction
speed
MPH
gust
MPH
rain 1hr
in
rain 24hr
in
rain mn
in
humidity
%
barometer
mb
20170324154751 35 255 2.0 9.0 0.00 0.00 0.00 52 1026.7
20170324154250 35 238 2.0 9.0 0.00 0.00 0.00 52 1026.8
20170324153250 35 206 5.0 12.0 0.00 0.00 0.00 53 1026.6
20170324152751 34 225 5.0 12.0 0.00 0.00 0.00 54 1026.5
20170324152250 34 190 3.0 10.0 0.00 0.00 0.00 56 1026.8
20170324151751 34 206 2.0 12.0 0.00 0.00 0.00 57 1027.0
20170324150751 34 193 4.0 8.0 0.00 0.00 0.00 57 1027.2
20170324145749 33 213 2.0 7.0 0.00 0.00 0.00 58 1027.9
20170324145249 33 171 2.0 7.0 0.00 0.00 0.00 58 1028.0
20170324144250 33 177 1.0 5.0 0.00 0.00 0.00 59 1028.4
20170324143751 32 112 0.0 3.0 0.00 0.00 0.00 60 1028.4
20170324142751 32 167 1.0 3.0 0.00 0.00 0.00 59 1028.4
20170324142249 32 192 1.0 6.0 0.00 0.00 0.00 59 1028.3
20170324141750 32 192 2.0 6.0 0.00 0.00 0.00 59 1028.4
20170324141249 31 217 0.0 3.0 0.00 0.00 0.00 60 1028.6
20170324140751 31 258 1.0 5.0 0.00 0.00 0.00 59 1028.7
20170324140250 31 223 2.0 5.0 0.00 0.00 0.00 59 1028.8
20170324135249 31 201 1.0 6.0 0.00 0.00 0.00 60 1028.4
20170324134750 31 164 0.0 6.0 0.00 0.00 0.00 59 1028.4
20170324134249 31 61 1.0 2.0 0.00 0.00 0.00 60 1028.5
20170324133751 31 220 0.0 6.0 0.00 0.00 0.00 59 1028.7
20170324133250 30 223 1.0 6.0 0.00 0.00 0.00 59 1029.1
20170324132751 30 165 0.0 2.0 0.00 0.00 0.00 61 1029.1
20170324131751 30 165 0.0 3.0 0.00 0.00 0.00 60 1029.3
20170324131250 30 165 0.0 3.0 0.00 0.00 0.00 59 1029.4
20170324130249 30 207 1.0 3.0 0.00 0.00 0.00 58 1029.6
20170324125250 29 242 1.0 5.0 0.00 0.00 0.00 58 1029.5
20170324124751 29 231 0.0 5.0 0.00 0.00 0.00 58 1029.5
20170324124249 29 155 0.0 2.0 0.00 0.00 0.00 57 1029.4
20170324122750 29 193 2.0 3.0 0.00 0.00 0.00 53 1030.2
20170324121750 28 72 0.0 3.0 0.00 0.00 0.00 53 1030.5
20170324121250 28 173 0.0 3.0 0.00 0.00 0.00 53 1030.5
20170324120751 28 173 1.0 5.0 0.00 0.00 0.00 53 1030.6
20170324115750 27 195 1.0 5.0 0.00 0.00 0.00 55 1030.5
20170324115250 26 250 0.0 3.0 0.00 0.00 0.00 57 1030.4
20170324114751 26 250 0.0 3.0 0.00 0.00 0.00 59 1030.5
20170324113751 24 355 0.0 2.0 0.00 0.00 0.00 62 1030.5
20170324113250 23 355 0.0 2.0 0.00 0.00 0.00 64 1030.4
20170324112250 22 0 0.0 0.0 0.00 0.00 0.00 76 1030.6
20170324111750 21 0 0.0 0.0 0.00 0.00 0.00 77 1030.8
20170324111249 21 0 0.0 0.0 0.00 0.00 0.00 76 1030.9
20170324110249 21 0 0.0 0.0 0.00 0.00 0.00 76 1031.2
20170324104249 21 0 0.0 0.0 0.00 0.00 0.00 77 1031.5
20170324103751 21 0 0.0 0.0 0.00 0.00 0.00 77 1031.7
20170324102751 20 0 0.0 0.0 0.00 0.00 0.00 77 1031.8
20170324102249 20 0 0.0 0.0 0.00 0.00 0.00 78 1031.8
20170324101750 20 0 0.0 0.0 0.00 0.00 0.00 78 1031.7
20170324101249 20 0 0.0 0.0 0.00 0.00 0.00 77 1031.6
20170324100751 20 0 0.0 0.0 0.00 0.00 0.00 77 1031.6
20170324100250 20 0 0.0 0.0 0.00 0.00 0.00 76 1031.6
20170324095749 20 0 0.0 0.0 0.00 0.00 0.00 76 1031.4
20170324095250 20 0 0.0 0.0 0.00 0.00 0.00 76 1031.4
20170324094249 20 0 0.0 0.0 0.00 0.00 0.00 76 1031.2
20170324092250 21 0 0.0 0.0 0.00 0.00 0.00 77 1031.2
20170324091751 21 0 0.0 0.0 0.00 0.00 0.00 77 1031.1
20170324091249 21 0 0.0 0.0 0.00 0.00 0.00 76 1031.0
20170324090751 21 0 0.0 0.0 0.00 0.00 0.00 76 1031.0
20170324090250 21 0 0.0 0.0 0.00 0.00 0.00 76 1031.0
20170324085750 20 0 0.0 0.0 0.00 0.00 0.00 75 1031.1
20170324085249 20 0 0.0 0.0 0.00 0.00 0.00 75 1031.1
20170324084249 21 0 0.0 0.0 0.00 0.00 0.00 74 1031.5
20170324083249 21 0 0.0 0.0 0.00 0.00 0.00 74 1031.6
20170324081249 21 0 0.0 0.0 0.00 0.00 0.00 75 1031.7
20170324075749 21 0 0.0 0.0 0.00 0.00 0.00 75 1031.7
20170324075249 21 0 0.0 0.0 0.00 0.00 0.00 75 1031.8
20170324074250 21 0 0.0 0.0 0.00 0.00 0.00 75 1032.0
20170324073250 21 0 0.0 0.0 0.00 0.00 0.00 75 1032.4
20170324072751 21 0 0.0 0.0 0.00 0.00 0.00 74 1032.5
20170324071751 21 0 0.0 0.0 0.00 0.00 0.00 75 1032.4
20170324065749 21 0 0.0 0.0 0.00 0.00 0.00 75 1032.9
20170324065249 21 0 0.0 0.0 0.00 0.00 0.00 75 1032.7
20170324064750 21 0 0.0 0.0 0.00 0.00 0.00 74 1032.8
20170324064250 21 0 0.0 0.0 0.00 0.00 0.00 75 1032.6
20170324063250 21 0 0.0 0.0 0.00 0.00 0.00 74 1032.7
20170324062751 21 0 0.0 0.0 0.00 0.00 0.00 72 1032.8
20170324061750 21 0 0.0 0.0 0.00 0.00 0.00 71 1033.1
20170324061249 21 0 0.0 0.0 0.00 0.00 0.00 71 1033.0
20170324060250 21 0 0.0 0.0 0.00 0.00 0.00 72 1032.9
20170324055750 21 0 0.0 0.0 0.00 0.00 0.00 73 1032.8
20170324055249 21 0 0.0 0.0 0.00 0.00 0.00 73 1032.8
20170324053751 21 0 0.0 0.0 0.00 0.00 0.00 74 1033.0
20170324052750 21 0 0.0 0.0 0.00 0.00 0.00 75 1033.1
20170324052249 20 0 0.0 0.0 0.00 0.00 0.00 75 1033.1
20170324051249 20 0 0.0 0.0 0.00 0.00 0.00 74 1033.2
20170324045749 20 0 0.0 0.0 0.00 0.00 0.00 76 1033.5
20170324045249 20 0 0.0 0.0 0.00 0.00 0.00 76 1033.6
20170324044751 19 0 0.0 0.0 0.00 0.00 0.00 76 1033.4
20170324044249 19 0 0.0 0.0 0.00 0.00 0.00 78 1033.4
20170324043750 19 0 0.0 1.0 0.00 0.00 0.00 77 1033.4
20170324042750 18 0 0.0 0.0 0.00 0.00 0.00 74 1033.5
20170324042249 18 0 0.0 0.0 0.00 0.00 0.00 74 1033.4
20170324041249 18 0 0.0 0.0 0.00 0.00 0.00 75 1033.4
20170324040751 18 0 0.0 0.0 0.00 0.00 0.00 75 1033.3
20170324035249 18 0 0.0 0.0 0.00 0.00 0.00 73 1033.4
20170324034751 19 0 0.0 0.0 0.00 0.00 0.00 73 1033.5
20170324034249 19 0 0.0 0.0 0.00 0.00 0.00 72 1033.6
20170324033751 19 0 0.0 0.0 0.00 0.00 0.00 73 1033.5
20170324033249 19 0 0.0 0.0 0.00 0.00 0.00 74 1033.7
20170324032250 19 0 0.0 0.0 0.00 0.00 0.00 72 1033.7
20170324031249 19 0 0.0 0.0 0.00 0.00 0.00 69 1033.6
20170324030751 19 0 0.0 0.0 0.00 0.00 0.00 68 1033.6
20170324030250 19 0 0.0 0.0 0.00 0.00 0.00 67 1033.7
20170324025249 19 0 0.0 0.0 0.00 0.00 0.00 68 1033.7
20170324021250 20 0 0.0 0.0 0.00 0.00 0.00 62 1033.5
20170324020750 20 0 0.0 0.0 0.00 0.00 0.00 61 1033.8
20170324015749 21 0 0.0 0.0 0.00 0.00 0.00 62 1033.8
20170324015249 21 0 0.0 0.0 0.00 0.00 0.00 61 1033.7
20170324014750 22 0 0.0 0.0 0.00 0.00 0.00 61 1033.4
20170324014249 22 0 0.0 0.0 0.00 0.00 0.00 62 1033.5
20170324013250 22 0 0.0 0.0 0.00 0.00 0.00 59 1033.6
20170324012249 23 0 0.0 0.0 0.00 0.00 0.00 60 1033.2
20170324011249 23 0 0.0 0.0 0.00 0.00 0.00 54 1033.1
20170324010755 24 0 0.0 0.0 0.00 0.00 0.00 55 1033.0
20170324010250 24 0 0.0 0.0 0.00 0.00 0.00 56 1033.0
20170324005749 24 0 0.0 0.0 0.00 0.00 0.00 57 1033.1
20170324005249 24 0 0.0 0.0 0.00 0.00 0.00 55 1033.2
20170324004750 24 0 0.0 0.0 0.00 0.00 0.00 54 1033.3
20170324004249 24 0 0.0 0.0 0.00 0.00 0.00 59 1033.3
20170324003750 25 0 0.0 0.0 0.00 0.00 0.00 53 1033.0
20170324002750 25 0 0.0 0.0 0.00 0.00 0.00 55 1032.6
20170324002249 25 0 0.0 0.0 0.00 0.00 0.00 52 1032.5
20170324001751 26 0 0.0 1.0 0.00 0.00 0.00 52 1032.4
20170324000750 26 0 0.0 0.0 0.00 0.00 0.00 52 1032.5
20170324000250 26 0 0.0 0.0 0.00 0.00 0.00 56 1032.5
20170323235749 27 0 0.0 0.0 0.00 0.00 0.00 52 1032.3
20170323235249 27 0 0.0 0.0 0.00 0.00 0.00 48 1032.3
20170323234750 27 0 0.0 0.0 0.00 0.00 0.00 46 1032.1
20170323234249 28 0 0.0 0.0 0.00 0.00 0.00 46 1032.1
20170323233750 28 0 0.0 0.0 0.00 0.00 0.00 44 1032.0
20170323233250 28 0 0.0 0.0 0.00 0.00 0.00 43 1031.9
20170323232750 29 0 0.0 0.0 0.00 0.00 0.00 42 1031.8
20170323231751 29 0 0.0 0.0 0.00 0.00 0.00 38 1031.4
20170323231148 29 360 0.0 3.0 0.00 0.00 0.00 41 1031.5
20170323230750 30 0 0.0 3.0 0.00 0.00 0.00 40 1031.4
20170323230250 30 42 0.0 5.0 0.00 0.00 0.00 39 1031.3
20170323225448 30 48 1.0 6.0 0.00 0.00 0.00 35 1031.2
20170323224751 31 298 0.0 5.0 0.00 0.00 0.00 35 1031.4
20170323224249 31 158 0.0 5.0 0.00 0.00 0.00 38 1031.4
20170323223758 31 23 2.0 5.0 0.00 0.00 0.00 33 1031.4
20170323223750 31 326 2.0 5.0 0.00 0.00 0.00 34 1031.3
20170323223249 32 80 1.0 3.0 0.00 0.00 0.00 33 1031.3
20170323222750 32 128 1.0 3.0 0.00 0.00 0.00 33 1031.3
20170323222249 32 93 0.0 4.0 0.00 0.00 0.00 33 1031.2
20170323221249 32 314 2.0 7.0 0.00 0.00 0.00 31 1031.2
20170323220450 32 224 0.0 5.0 0.00 0.00 0.00 33 1031.1
20170323220249 32 277 0.0 9.0 0.00 0.00 0.00 32 1031.1
20170323215248 33 251 1.0 3.0 0.00 0.00 0.00 30 1031.0
20170323214752 32 122 0.0 7.0 0.00 0.00 0.00 32 1031.0
20170323213751 33 321 2.0 9.0 0.00 0.00 0.00 29 1030.9
20170323213249 34 2 3.0 9.0 0.00 0.00 0.00 29 1030.9
20170323213152 33 207 2.0 9.0 0.00 0.00 0.00 29 1030.9
20170323211750 34 256 3.0 9.0 0.00 0.00 0.00 29 1030.8
20170323211453 34 314 3.0 9.0 0.00 0.00 0.00 29 1030.8
20170323211249 34 316 3.0 8.0 0.00 0.00 0.00 29 1030.7
20170323205758 33 32 1.0 11.0 0.00 0.00 0.00 30 1030.7
20170323205749 34 32 2.0 13.0 0.00 0.00 0.00 30 1030.7
20170323205249 34 52 4.0 13.0 0.00 0.00 0.00 28 1030.8
20170323204750 34 53 5.0 13.0 0.00 0.00 0.00 29 1030.8
20170323204249 34 265 4.0 12.0 0.00 0.00 0.00 28 1030.8
20170323204149 33 355 3.0 12.0 0.00 0.00 0.00 28 1030.7
20170323203750 34 308 6.0 10.0 0.00 0.00 0.00 29 1030.8
20170323202450 34 35 5.0 12.0 0.00 0.00 0.00 29 1030.8
20170323202249 34 70 2.0 10.0 0.00 0.00 0.00 29 1030.7
20170323201750 34 24 2.0 10.0 0.00 0.00 0.00 29 1030.7
20170323201248 34 280 2.0 8.0 0.00 0.00 0.00 29 1030.7
20170323200759 33 272 4.0 10.0 0.00 0.00 0.00 29 1030.7
20170323200249 34 228 4.0 12.0 0.00 0.00 0.00 29 1030.7
20170323195749 33 229 3.0 14.0 0.00 0.00 0.00 30 1030.9
20170323195152 33 177 3.0 14.0 0.00 0.00 0.00 29 1030.8
20170323193749 33 0 5.0 10.0 0.00 0.00 0.00 30 1030.8
20170323193450 33 345 2.0 10.0 0.00 0.00 0.00 31 1030.7
20170323193249 33 353 4.0 12.0 0.00 0.00 0.00 32 1030.7
20170323192750 33 224 5.0 12.0 0.00 0.00 0.00 29 1030.8
20170323191755 32 237 4.0 10.0 0.00 0.00 0.00 30 1030.9
20170323191249 33 353 3.0 8.0 0.00 0.00 0.00 30 1031.0
20170323190750 32 262 3.0 13.0 0.00 0.00 0.00 29 1031.0
20170323190249 32 12 6.0 13.0 0.00 0.00 0.00 29 1030.9
20170323190148 32 10 7.0 13.0 0.00 0.00 0.00 29 1030.9
20170323185749 32 78 4.0 12.0 0.00 0.00 0.00 29 1030.9
20170323185249 32 37 4.0 14.0 0.00 0.00 0.00 29 1030.9
20170323184750 32 241 5.0 14.0 0.00 0.00 0.00 30 1030.9
20170323184452 31 234 4.0 14.0 0.00 0.00 0.00 29 1030.9
20170323184249 32 80 3.0 14.0 0.00 0.00 0.00 29 1030.9
20170323183249 31 232 5.0 12.0 0.00 0.00 0.00 29 1030.9
20170323182754 31 13 6.0 11.0 0.00 0.00 0.00 32 1030.9
20170323181750 31 16 3.0 12.0 0.00 0.00 0.00 30 1030.8
20170323181201 30 306 4.0 15.0 0.00 0.00 0.00 30 1030.8
20170323175748 30 308 4.0 12.0 0.00 0.00 0.00 30 1030.9
20170323175448 30 295 6.0 15.0 0.00 0.00 0.00 29 1030.9
20170323175249 30 215 6.0 14.0 0.00 0.00 0.00 29 1030.8
20170323174249 30 347 3.0 12.0 0.00 0.00 0.00 33 1030.8
20170323173755 29 52 3.0 10.0 0.00 0.00 0.00 31 1030.8
20170323172750 30 307 6.0 13.0 0.00 0.00 0.00 28 1030.9
20170323172148 30 315 4.0 12.0 0.00 0.00 0.00 29 1031.1
20170323171749 30 19 2.0 9.0 0.00 0.00 0.00 31 1031.0
20170323170750 29 181 4.0 13.0 0.00 0.00 0.00 32 1031.3
20170323170449 29 180 3.0 12.0 0.00 0.00 0.00 32 1031.2
20170323170249 29 173 2.0 13.0 0.00 0.00 0.00 33 1031.3
20170323165749 29 2 6.0 13.0 0.00 0.00 0.00 30 1031.5
20170323164801 28 301 3.0 13.0 0.00 0.00 0.00 31 1031.5
20170323164750 28 217 4.0 12.0 0.00 0.00 0.00 31 1031.4
20170323163157 27 291 6.0 14.0 0.00 0.00 0.00 31 1031.5
20170323162749 28 299 3.0 15.0 0.00 0.00 0.00 31 1031.6
20170323161750 27 151 5.0 12.0 0.00 0.00 0.00 32 1031.6
20170323161448 27 14 5.0 13.0 0.00 0.00 0.00 33 1031.6
20170323161249 27 27 6.0 12.0 0.00 0.00 0.00 32 1031.6
20170323155757 26 325 4.0 16.0 0.00 0.00 0.00 34 1031.8